Time;durP1;ratioP1;P1;durP2;ratioP2;P2;SDS_P1;SDS_P2;PMS_P1;PMS_P2;Temp;Humidity;BMP_temperature;BMP_pressure;BME280_temperature;BME280_humidity;BME280_pressure;Samples;Min_cycle;Max_cycle;Signal;HPM_P1;HPM_P2
2022/11/07 00:01:45;;;;;;;;;;;9.90;99.90;;;;;;4965154;28;19918;-70
2022/11/07 00:04:10;;;;;;;;;;;9.90;99.90;;;;;;4949637;28;19973;-70
2022/11/07 00:06:39;;;;;;;;;;;9.90;99.90;;;;;;4932893;29;19918;-70
2022/11/07 00:09:05;;;;;;;;;;;10.00;99.90;;;;;;4968594;28;20004;-70
2022/11/07 00:11:30;;;;;;;;;;;10.00;99.90;;;;;;4953581;28;20022;-69
2022/11/07 00:13:56;;;;;;;;;;;10.10;99.90;;;;;;4950516;28;20327;-70
2022/11/07 00:16:22;;;;;;;;;;;10.00;99.90;;;;;;4951316;28;20020;-69
2022/11/07 00:18:54;;;;;;;;;;;10.00;99.90;;;;;;4933165;28;19926;-70
2022/11/07 00:21:19;;;;;;;;;;;10.10;99.90;;;;;;4971522;28;19926;-70
2022/11/07 00:23:45;;;;;;;;;;;10.10;99.90;;;;;;4953223;28;19926;-70
2022/11/07 00:26:14;;;;;;;;;;;10.10;99.90;;;;;;4951488;28;19933;-70
2022/11/07 00:28:41;;;;;;;;;;;10.10;99.90;;;;;;4939856;23;19957;-95
2022/11/07 00:31:07;;;;;;;;;;;10.20;99.90;;;;;;4935143;29;19926;-94
2022/11/07 00:33:33;;;;;;;;;;;10.20;99.90;;;;;;4936976;29;19918;-94
2022/11/07 00:35:59;;;;;;;;;;;11.20;99.90;;;;;;4951141;29;19926;-95
2022/11/07 00:38:24;;;;;;;;;;;10.20;99.90;;;;;;4931276;29;19918;-92
2022/11/07 00:40:57;;;;;;;;;;;10.20;99.90;;;;;;4947747;28;19927;-94
2022/11/07 00:43:23;;;;;;;;;;;10.30;99.90;;;;;;4949768;29;19922;-95
2022/11/07 00:45:49;;;;;;;;;;;10.30;99.90;;;;;;4947663;29;19930;-94
2022/11/07 00:48:14;;;;;;;;;;;10.30;99.90;;;;;;4947854;29;19922;-95
2022/11/07 00:50:40;;;;;;;;;;;10.30;99.90;;;;;;4951575;29;19918;-94
2022/11/07 00:53:06;;;;;;;;;;;10.40;99.90;;;;;;4945465;28;19919;-94
2022/11/07 00:55:32;;;;;;;;;;;10.40;99.90;;;;;;4919839;29;20362;-95
2022/11/07 00:57:58;;;;;;;;;;;10.40;99.90;;;;;;4929549;29;19933;-94
2022/11/07 01:00:23;;;;;;;;;;;10.90;99.90;;;;;;4936268;29;19919;-94
2022/11/07 01:05:09;;;;;;;;;;;10.50;99.90;;;;;;4946230;29;20438;-95
2022/11/07 01:05:35;;;;;;;;;;;10.60;99.90;;;;;;4948080;29;19922;-94
2022/11/07 01:08:00;;;;;;;;;;;10.60;99.90;;;;;;4951089;28;20436;-95
2022/11/07 01:10:26;;;;;;;;;;;10.60;99.90;;;;;;4946185;28;19961;-94
2022/11/07 01:12:52;;;;;;;;;;;10.60;99.90;;;;;;4936521;29;20012;-95
2022/11/07 01:15:20;;;;;;;;;;;10.50;99.90;;;;;;4947160;29;19919;-95
2022/11/07 01:17:45;;;;;;;;;;;10.50;99.90;;;;;;4947402;28;20010;-95
2022/11/07 01:20:11;;;;;;;;;;;10.50;99.90;;;;;;4932930;29;19961;-95
2022/11/07 01:22:37;;;;;;;;;;;10.40;99.90;;;;;;4951649;28;19918;-95
2022/11/07 01:25:02;;;;;;;;;;;10.40;99.90;;;;;;4932891;29;19926;-95
2022/11/07 01:27:28;;;;;;;;;;;10.40;99.90;;;;;;4936589;29;19922;-96
2022/11/07 01:29:54;;;;;;;;;;;10.30;99.90;;;;;;4934949;29;19923;-96
2022/11/07 01:32:19;;;;;;;;;;;10.40;99.90;;;;;;4936809;29;19925;-95
2022/11/07 01:34:45;;;;;;;;;;;10.30;99.90;;;;;;4937403;29;19961;-94
2022/11/07 01:37:10;;;;;;;;;;;10.30;99.90;;;;;;4953048;29;19926;-93
2022/11/07 01:39:36;;;;;;;;;;;10.20;99.90;;;;;;4933290;29;20391;-95
2022/11/07 01:42:02;;;;;;;;;;;10.20;99.90;;;;;;4944582;29;20043;-95
2022/11/07 01:44:28;;;;;;;;;;;10.30;99.90;;;;;;4935096;29;19926;-95
2022/11/07 01:46:55;;;;;;;;;;;10.30;99.90;;;;;;4932653;29;19993;-95
2022/11/07 01:49:22;;;;;;;;;;;11.70;99.90;;;;;;4946565;28;19950;-94
2022/11/07 01:51:50;;;;;;;;;;;10.30;99.90;;;;;;4946716;29;20403;-95
2022/11/07 01:54:18;;;;;;;;;;;10.20;99.90;;;;;;4965395;28;20028;-95
2022/11/07 01:56:44;;;;;;;;;;;11.00;99.90;;;;;;4947267;28;19918;-95
2022/11/07 01:59:11;;;;;;;;;;;10.40;99.90;;;;;;4951216;29;19938;-95
2022/11/07 02:01:37;;;;;;;;;;;10.50;99.90;;;;;;4931882;29;20017;-95
2022/11/07 02:04:08;;;;;;;;;;;10.70;99.90;;;;;;4934323;29;20017;-95
2022/11/07 02:06:40;;;;;;;;;;;10.50;99.90;;;;;;4920327;29;19924;-96
2022/11/07 02:09:05;;;;;;;;;;;10.50;99.90;;;;;;4949413;28;19919;-96
2022/11/07 02:11:32;;;;;;;;;;;11.00;99.90;;;;;;4939775;29;20002;-96
2022/11/07 02:13:57;;;;;;;;;;;10.70;99.90;;;;;;4942691;29;19985;-95
2022/11/07 02:16:31;;;;;;;;;;;10.60;99.90;;;;;;4941473;29;19922;-95
2022/11/07 02:18:57;;;;;;;;;;;10.60;99.90;;;;;;4935723;29;20018;-96
2022/11/07 02:21:29;;;;;;;;;;;10.60;99.90;;;;;;4954035;28;20411;-96
2022/11/07 02:24:04;;;;;;;;;;;10.60;99.90;;;;;;4953060;29;19997;-95
2022/11/07 02:26:30;;;;;;;;;;;10.60;99.90;;;;;;4952548;29;19925;-95
2022/11/07 02:28:56;;;;;;;;;;;10.60;99.90;;;;;;4950951;28;19931;-93
2022/11/07 02:31:22;;;;;;;;;;;10.60;99.90;;;;;;4952184;29;20064;-95
2022/11/07 02:33:48;;;;;;;;;;;10.60;99.90;;;;;;4940976;29;19993;-94
2022/11/07 02:36:18;;;;;;;;;;;10.60;99.90;;;;;;4952528;29;20008;-95
2022/11/07 02:38:44;;;;;;;;;;;10.60;99.90;;;;;;4930926;29;20357;-96
2022/11/07 02:41:34;;;;;;;;;;;10.60;99.90;;;;;;4933314;29;19931;-96
2022/11/07 02:44:05;;;;;;;;;;;10.60;99.90;;;;;;4945485;29;19926;-96
2022/11/07 02:46:31;;;;;;;;;;;11.20;99.90;;;;;;4948042;29;19922;-95
2022/11/07 02:48:58;;;;;;;;;;;10.60;99.90;;;;;;4955834;29;20055;-95
2022/11/07 02:51:23;;;;;;;;;;;10.70;99.90;;;;;;4937162;29;19926;-95
2022/11/07 02:53:50;;;;;;;;;;;10.60;99.90;;;;;;4944437;29;19919;-95
2022/11/07 02:56:18;;;;;;;;;;;10.70;99.90;;;;;;4949510;29;19925;-95
2022/11/07 02:58:44;;;;;;;;;;;10.70;99.90;;;;;;4921961;29;19968;-95
2022/11/07 03:01:11;;;;;;;;;;;10.70;99.90;;;;;;4952524;29;20368;-95
2022/11/07 03:03:41;;;;;;;;;;;10.70;99.90;;;;;;4933392;29;19926;-95
2022/11/07 03:06:07;;;;;;;;;;;10.80;99.90;;;;;;4951578;29;19922;-95
2022/11/07 03:08:33;;;;;;;;;;;10.80;99.90;;;;;;4949862;29;19918;-95
2022/11/07 03:10:59;;;;;;;;;;;10.80;99.90;;;;;;4939647;29;19989;-96
2022/11/07 03:13:25;;;;;;;;;;;10.70;99.90;;;;;;4934170;29;20263;-95
2022/11/07 03:15:51;;;;;;;;;;;10.70;99.90;;;;;;4955755;28;19924;-96
2022/11/07 03:18:17;;;;;;;;;;;11.70;99.90;;;;;;4966384;28;19958;-96
2022/11/07 03:20:45;;;;;;;;;;;10.70;99.90;;;;;;4953947;28;19989;-96
2022/11/07 03:23:11;;;;;;;;;;;11.60;99.90;;;;;;4953601;29;19926;-93
2022/11/07 03:25:37;;;;;;;;;;;10.60;99.90;;;;;;4969751;28;19925;-95
2022/11/07 03:28:03;;;;;;;;;;;10.60;99.90;;;;;;4950333;29;19926;-95
2022/11/07 03:30:28;;;;;;;;;;;10.60;99.90;;;;;;4937633;29;20296;-94
2022/11/07 03:32:54;;;;;;;;;;;10.50;99.90;;;;;;4935471;29;20061;-96
2022/11/07 03:35:20;;;;;;;;;;;10.70;99.90;;;;;;4949907;29;19929;-94
2022/11/07 03:37:46;;;;;;;;;;;10.50;99.90;;;;;;4950173;28;19918;-95
2022/11/07 03:40:12;;;;;;;;;;;10.50;99.90;;;;;;4937556;29;19927;-95
2022/11/07 03:42:41;;;;;;;;;;;10.50;99.90;;;;;;4939125;29;20267;-95
2022/11/07 03:45:08;;;;;;;;;;;10.40;99.90;;;;;;4931584;29;19930;-94
2022/11/07 03:47:36;;;;;;;;;;;10.40;99.90;;;;;;4935035;29;19923;-96
2022/11/07 03:50:02;;;;;;;;;;;10.30;99.90;;;;;;4949103;29;19926;-96
2022/11/07 03:52:28;;;;;;;;;;;10.30;99.90;;;;;;4932088;29;19922;-96
2022/11/07 03:54:53;;;;;;;;;;;10.40;99.90;;;;;;4954610;29;19941;-96
2022/11/07 03:57:19;;;;;;;;;;;11.00;99.90;;;;;;4934168;29;19965;-96
2022/11/07 03:59:45;;;;;;;;;;;10.40;99.90;;;;;;4922591;29;19922;-94
2022/11/07 04:02:10;;;;;;;;;;;10.50;99.90;;;;;;4945251;28;19950;-96
2022/11/07 04:04:36;;;;;;;;;;;10.50;99.90;;;;;;4937996;29;19919;-95
2022/11/07 04:07:01;;;;;;;;;;;10.50;99.90;;;;;;4940300;29;20277;-95
2022/11/07 04:09:27;;;;;;;;;;;9.00;99.90;;;;;;4937857;28;20006;-95
2022/11/07 04:17:21;;;;;;;;;;;10.50;99.90;;;;;;4948232;29;19929;-95
2022/11/07 04:19:48;;;;;;;;;;;10.50;99.90;;;;;;4939789;29;19926;-95
2022/11/07 04:22:14;;;;;;;;;;;10.60;99.90;;;;;;4933085;29;20176;-95
2022/11/07 04:24:40;;;;;;;;;;;10.60;99.90;;;;;;4931581;29;19922;-95
2022/11/07 04:29:51;;;;;;;;;;;10.60;99.90;;;;;;4947327;29;19965;-96
2022/11/07 04:32:17;;;;;;;;;;;10.60;99.90;;;;;;4937801;29;20391;-95
2022/11/07 04:34:42;;;;;;;;;;;10.60;99.90;;;;;;4946068;29;19918;-94
2022/11/07 04:37:08;;;;;;;;;;;10.60;99.90;;;;;;4951653;29;19926;-96
2022/11/07 04:39:34;;;;;;;;;;;10.60;99.90;;;;;;4938095;29;19926;-95
2022/11/07 04:41:59;;;;;;;;;;;10.60;99.90;;;;;;4929385;29;19946;-95
2022/11/07 04:44:25;;;;;;;;;;;10.90;99.90;;;;;;4915042;29;19922;-95
2022/11/07 04:46:50;;;;;;;;;;;11.00;99.90;;;;;;4938023;29;19918;-95
2022/11/07 04:49:19;;;;;;;;;;;10.60;99.90;;;;;;4950194;28;20001;-96
2022/11/07 04:51:44;;;;;;;;;;;10.60;99.90;;;;;;4931410;29;19926;-96
2022/11/07 04:54:12;;;;;;;;;;;10.60;99.90;;;;;;4935573;29;19922;-95
2022/11/07 04:56:37;;;;;;;;;;;10.60;99.90;;;;;;4949425;29;20403;-96
2022/11/07 04:59:03;;;;;;;;;;;10.60;99.90;;;;;;4939194;29;19929;-96
2022/11/07 05:01:31;;;;;;;;;;;10.60;99.90;;;;;;4933146;29;19918;-95
2022/11/07 05:03:57;;;;;;;;;;;10.60;99.90;;;;;;4936794;29;20411;-96
2022/11/07 05:06:22;;;;;;;;;;;10.50;99.90;;;;;;4935860;29;19966;-95
2022/11/07 05:08:48;;;;;;;;;;;9.90;99.90;;;;;;4932915;29;19922;-96
2022/11/07 05:11:14;;;;;;;;;;;12.00;99.90;;;;;;4941226;29;20021;-96
2022/11/07 05:13:40;;;;;;;;;;;10.50;99.90;;;;;;4946837;29;20273;-96
2022/11/07 05:16:09;;;;;;;;;;;10.50;99.90;;;;;;4932766;29;19964;-95
2022/11/07 05:18:37;;;;;;;;;;;10.50;99.90;;;;;;4935856;29;19922;-96
2022/11/07 05:21:06;;;;;;;;;;;10.20;99.90;;;;;;4922290;29;19925;-95
2022/11/07 05:23:31;;;;;;;;;;;10.50;99.90;;;;;;4951481;29;19923;-96
2022/11/07 05:25:57;;;;;;;;;;;10.50;99.90;;;;;;4935342;29;19941;-96
2022/11/07 05:28:24;;;;;;;;;;;10.80;99.90;;;;;;4949299;29;20080;-95
2022/11/07 05:30:49;;;;;;;;;;;11.30;99.90;;;;;;4933939;29;19976;-93
2022/11/07 05:33:19;;;;;;;;;;;10.50;99.90;;;;;;4949425;29;20194;-96
2022/11/07 05:35:45;;;;;;;;;;;10.50;99.90;;;;;;4947823;29;19934;-94
2022/11/07 05:38:10;;;;;;;;;;;10.50;99.90;;;;;;4946890;29;19922;-95
2022/11/07 05:40:37;;;;;;;;;;;10.50;99.90;;;;;;4951953;29;19985;-96
2022/11/07 05:43:15;;;;;;;;;;;10.50;99.90;;;;;;4930510;29;19922;-95
2022/11/07 05:45:41;;;;;;;;;;;10.60;99.90;;;;;;4936324;29;19918;-95
2022/11/07 05:48:08;;;;;;;;;;;10.60;99.90;;;;;;4939367;29;20036;-94
2022/11/07 05:50:34;;;;;;;;;;;10.90;99.90;;;;;;4948521;29;19925;-94
2022/11/07 05:52:59;;;;;;;;;;;10.50;99.90;;;;;;4933993;29;19957;-95
2022/11/07 05:55:25;;;;;;;;;;;10.50;99.90;;;;;;4940390;29;19918;-94
2022/11/07 05:57:51;;;;;;;;;;;10.70;99.90;;;;;;4934497;29;19918;-95
2022/11/07 06:00:17;;;;;;;;;;;10.70;99.90;;;;;;4955338;28;19927;-93
2022/11/07 06:02:43;;;;;;;;;;;10.70;99.90;;;;;;4953515;29;19923;-95
2022/11/07 06:05:08;;;;;;;;;;;10.70;99.90;;;;;;4938831;29;19918;-93
2022/11/07 06:07:35;;;;;;;;;;;10.70;99.90;;;;;;4969390;28;20293;-95
2022/11/07 06:10:00;;;;;;;;;;;10.60;99.90;;;;;;4935907;29;19918;-94
2022/11/07 06:12:26;;;;;;;;;;;10.70;99.90;;;;;;4939718;29;20699;-95
2022/11/07 06:14:52;;;;;;;;;;;10.60;99.90;;;;;;4947255;29;20304;-94
2022/11/07 06:17:17;;;;;;;;;;;10.70;99.90;;;;;;4937494;29;20332;-94
2022/11/07 06:19:43;;;;;;;;;;;10.70;99.90;;;;;;4936687;29;19984;-94
2022/11/07 06:22:08;;;;;;;;;;;10.70;99.90;;;;;;4934439;29;19942;-95
2022/11/07 06:24:34;;;;;;;;;;;11.30;99.90;;;;;;4930475;29;19918;-95
2022/11/07 06:26:59;;;;;;;;;;;10.70;99.90;;;;;;4932100;29;19933;-96
2022/11/07 06:29:25;;;;;;;;;;;10.70;99.90;;;;;;4924481;29;19922;-95
2022/11/07 06:31:51;;;;;;;;;;;10.70;99.90;;;;;;4917097;29;20392;-94
2022/11/07 06:34:16;;;;;;;;;;;10.70;99.90;;;;;;4915057;29;19925;-94
2022/11/07 06:36:42;;;;;;;;;;;10.80;99.90;;;;;;4935313;29;19918;-94
2022/11/07 06:39:07;;;;;;;;;;;10.70;99.90;;;;;;4947681;29;19929;-95
2022/11/07 06:41:33;;;;;;;;;;;10.80;99.90;;;;;;4932296;29;19930;-94
2022/11/07 06:43:59;;;;;;;;;;;10.80;99.90;;;;;;4932891;29;19930;-95
2022/11/07 06:46:24;;;;;;;;;;;10.70;99.90;;;;;;4928712;29;20009;-96
2022/11/07 06:48:50;;;;;;;;;;;10.80;99.90;;;;;;4931240;29;19926;-94
2022/11/07 06:51:16;;;;;;;;;;;10.70;99.90;;;;;;4934951;29;19950;-94
2022/11/07 06:53:41;;;;;;;;;;;10.70;99.90;;;;;;4932961;29;20021;-95
2022/11/07 06:56:09;;;;;;;;;;;10.70;99.90;;;;;;4949164;28;19984;-94
2022/11/07 06:58:35;;;;;;;;;;;10.70;99.90;;;;;;4942372;28;19923;-94
2022/11/07 07:01:01;;;;;;;;;;;10.70;99.90;;;;;;4943556;29;20200;-95
2022/11/07 07:03:27;;;;;;;;;;;10.70;99.90;;;;;;4931601;29;20062;-95
2022/11/07 07:05:52;;;;;;;;;;;10.70;99.90;;;;;;4915028;29;20402;-95
2022/11/07 07:08:18;;;;;;;;;;;10.80;99.90;;;;;;4935088;29;19977;-94
2022/11/07 07:10:44;;;;;;;;;;;10.80;99.90;;;;;;4934286;29;19919;-95
2022/11/07 07:13:10;;;;;;;;;;;10.80;99.90;;;;;;4945106;29;19954;-95
2022/11/07 07:15:35;;;;;;;;;;;10.80;99.90;;;;;;4936514;29;19918;-94
2022/11/07 07:18:02;;;;;;;;;;;10.80;99.90;;;;;;4929362;29;19930;-94
2022/11/07 07:20:27;;;;;;;;;;;10.80;99.90;;;;;;4942340;29;19969;-95
2022/11/07 07:22:53;;;;;;;;;;;11.00;99.90;;;;;;4914816;29;20388;-94
2022/11/07 07:25:18;;;;;;;;;;;10.80;99.90;;;;;;4934017;29;20009;-94
2022/11/07 07:27:44;;;;;;;;;;;10.80;99.90;;;;;;4933411;29;19918;-94
2022/11/07 07:30:10;;;;;;;;;;;10.80;99.90;;;;;;4939206;29;20484;-94
2022/11/07 07:32:36;;;;;;;;;;;10.80;99.90;;;;;;4943783;29;19997;-95
2022/11/07 07:35:01;;;;;;;;;;;10.90;99.90;;;;;;4945229;28;19923;-95
2022/11/07 07:37:27;;;;;;;;;;;10.90;99.90;;;;;;4930814;29;19918;-93
2022/11/07 07:39:52;;;;;;;;;;;10.90;99.90;;;;;;4916892;29;19925;-92
2022/11/07 07:42:18;;;;;;;;;;;10.90;99.90;;;;;;4932632;29;19922;-93
2022/11/07 07:44:43;;;;;;;;;;;10.90;99.90;;;;;;4943623;29;19919;-93
2022/11/07 07:47:09;;;;;;;;;;;11.00;99.90;;;;;;4931491;29;20454;-95
2022/11/07 07:49:34;;;;;;;;;;;11.00;99.90;;;;;;4933785;29;19918;-95
2022/11/07 07:52:00;;;;;;;;;;;11.10;99.90;;;;;;4948153;28;19918;-93
2022/11/07 07:54:26;;;;;;;;;;;11.20;99.90;;;;;;4910255;29;20384;-92
2022/11/07 07:56:51;;;;;;;;;;;11.20;99.90;;;;;;4943517;29;20009;-92
2022/11/07 07:59:17;;;;;;;;;;;11.20;99.90;;;;;;4961558;28;20273;-91
2022/11/07 08:01:42;;;;;;;;;;;11.20;99.90;;;;;;4926286;29;19922;-87
2022/11/07 08:04:08;;;;;;;;;;;11.30;99.90;;;;;;4910174;29;19923;-92
2022/11/07 08:06:36;;;;;;;;;;;10.50;99.90;;;;;;4928173;28;20402;-91
2022/11/07 08:09:01;;;;;;;;;;;11.20;99.90;;;;;;4923940;29;19918;-88
2022/11/07 08:11:27;;;;;;;;;;;11.20;99.90;;;;;;4913648;29;20296;-90
2022/11/07 08:13:53;;;;;;;;;;;11.20;99.90;;;;;;4941235;28;20268;-91
2022/11/07 08:16:18;;;;;;;;;;;11.20;99.90;;;;;;4945532;29;20420;-91
2022/11/07 08:18:44;;;;;;;;;;;11.80;99.90;;;;;;4927955;28;21136;-89
2022/11/07 08:21:09;;;;;;;;;;;11.30;99.90;;;;;;4942963;29;19930;-90
2022/11/07 08:23:35;;;;;;;;;;;11.30;99.90;;;;;;4951024;28;19926;-91
2022/11/07 08:26:03;;;;;;;;;;;11.30;99.90;;;;;;4947531;29;20324;-90
2022/11/07 08:28:30;;;;;;;;;;;11.30;99.90;;;;;;4933025;29;20532;-92
2022/11/07 08:31:00;;;;;;;;;;;11.40;99.90;;;;;;4945370;29;19926;-91
2022/11/07 08:33:25;;;;;;;;;;;11.40;99.90;;;;;;4942499;28;19918;-89
2022/11/07 08:35:55;;;;;;;;;;;11.40;99.90;;;;;;4940726;29;19946;-91
2022/11/07 08:38:20;;;;;;;;;;;11.40;99.90;;;;;;4943305;28;19918;-91
2022/11/07 08:40:47;;;;;;;;;;;11.40;99.90;;;;;;4947946;28;20045;-86
2022/11/07 08:43:15;;;;;;;;;;;11.40;99.90;;;;;;4937373;29;19923;-87
2022/11/07 08:45:41;;;;;;;;;;;11.50;99.90;;;;;;4933782;29;19925;-87
2022/11/07 08:48:07;;;;;;;;;;;11.50;99.90;;;;;;4929936;29;19923;-86
2022/11/07 08:50:32;;;;;;;;;;;11.60;99.90;;;;;;4932692;29;19922;-86
2022/11/07 08:52:58;;;;;;;;;;;11.60;99.90;;;;;;4933717;29;19918;-86
2022/11/07 08:55:24;;;;;;;;;;;11.70;99.90;;;;;;4948224;28;20376;-86
2022/11/07 08:57:49;;;;;;;;;;;11.70;99.90;;;;;;4949311;29;19918;-86
2022/11/07 09:00:15;;;;;;;;;;;11.70;99.90;;;;;;4950107;29;20384;-84
2022/11/07 09:02:41;;;;;;;;;;;11.70;99.90;;;;;;4950365;29;19992;-85
2022/11/07 09:05:07;;;;;;;;;;;11.70;99.90;;;;;;4947892;29;19931;-91
2022/11/07 09:07:33;;;;;;;;;;;11.70;99.90;;;;;;4945027;29;19919;-90
2022/11/07 09:09:58;;;;;;;;;;;11.70;99.90;;;;;;4931762;29;19925;-89
2022/11/07 09:12:24;;;;;;;;;;;11.70;99.90;;;;;;4938580;29;19922;-90
2022/11/07 09:14:49;;;;;;;;;;;11.70;99.90;;;;;;4923688;29;19919;-90
2022/11/07 09:17:16;;;;;;;;;;;11.80;99.90;;;;;;4933768;29;19924;-90
2022/11/07 09:19:42;;;;;;;;;;;11.80;99.90;;;;;;4932322;29;19962;-90
2022/11/07 09:22:07;;;;;;;;;;;11.80;99.90;;;;;;4941853;29;19973;-90
2022/11/07 09:24:33;;;;;;;;;;;11.80;99.90;;;;;;4949416;28;19919;-90
2022/11/07 09:26:58;;;;;;;;;;;11.80;99.90;;;;;;4933712;29;19942;-90
2022/11/07 09:29:24;;;;;;;;;;;11.80;99.90;;;;;;4936962;29;19926;-90
2022/11/07 09:31:50;;;;;;;;;;;11.90;99.90;;;;;;4909162;29;19926;-92
2022/11/07 09:34:15;;;;;;;;;;;11.90;99.90;;;;;;4923463;29;19942;-90
2022/11/07 09:36:41;;;;;;;;;;;12.00;99.90;;;;;;4933677;29;19926;-90
2022/11/07 09:39:06;;;;;;;;;;;12.00;99.90;;;;;;4916694;28;19911;-89
2022/11/07 09:41:42;;;;;;;;;;;12.10;99.90;;;;;;4931288;29;20005;-89
2022/11/07 09:44:27;;;;;;;;;;;12.10;99.90;;;;;;4947253;28;19984;-89
2022/11/07 09:46:52;;;;;;;;;;;12.20;99.90;;;;;;4962184;28;19918;-89
2022/11/07 09:49:28;;;;;;;;;;;12.20;99.90;;;;;;4919257;29;19923;-88
2022/11/07 09:51:57;;;;;;;;;;;12.20;99.90;;;;;;4932517;29;19933;-87
2022/11/07 09:54:25;;;;;;;;;;;12.30;99.90;;;;;;4922442;29;20038;-87
2022/11/07 09:56:51;;;;;;;;;;;12.30;99.90;;;;;;4948520;29;20274;-88
2022/11/07 09:59:23;;;;;;;;;;;12.30;99.90;;;;;;4907848;29;19938;-90
2022/11/07 10:01:48;;;;;;;;;;;12.40;99.90;;;;;;4931014;29;19923;-91
2022/11/07 10:04:15;;;;;;;;;;;12.40;99.90;;;;;;4933237;29;19936;-91
2022/11/07 10:06:45;;;;;;;;;;;12.30;99.90;;;;;;4948919;29;19919;-88
2022/11/07 10:09:15;;;;;;;;;;;12.30;99.90;;;;;;4959109;28;19933;-91
2022/11/07 10:11:45;;;;;;;;;;;12.40;99.90;;;;;;4923481;29;19922;-90
2022/11/07 10:14:29;;;;;;;;;;;12.40;99.90;;;;;;4939036;28;19953;-91
2022/11/07 10:16:58;;;;;;;;;;;12.40;99.90;;;;;;4934721;29;20466;-90
2022/11/07 10:19:26;;;;;;;;;;;12.30;99.90;;;;;;4932746;29;19926;-90
2022/11/07 10:22:15;;;;;;;;;;;12.20;99.90;;;;;;4940331;28;19929;-90
2022/11/07 10:25:00;;;;;;;;;;;13.00;99.90;;;;;;4949743;29;19933;-91
2022/11/07 10:27:29;;;;;;;;;;;12.10;99.90;;;;;;4926709;29;19998;-91
2022/11/07 10:29:58;;;;;;;;;;;12.10;99.90;;;;;;4942978;28;20503;-91
2022/11/07 10:32:46;;;;;;;;;;;12.20;99.90;;;;;;4937431;28;20372;-91
2022/11/07 10:35:11;;;;;;;;;;;12.20;99.90;;;;;;4927753;29;20013;-91
2022/11/07 10:37:37;;;;;;;;;;;12.30;99.90;;;;;;4930212;29;19973;-91
2022/11/07 10:40:15;;;;;;;;;;;12.30;99.90;;;;;;4950817;29;19922;-93
2022/11/07 10:42:42;;;;;;;;;;;12.40;99.90;;;;;;4941130;29;19926;-91
2022/11/07 10:45:15;;;;;;;;;;;12.40;99.90;;;;;;4952493;29;20410;-91
2022/11/07 10:47:41;;;;;;;;;;;12.50;99.90;;;;;;4934503;29;19930;-91
2022/11/07 10:50:16;;;;;;;;;;;12.60;99.90;;;;;;4943637;28;19926;-91
2022/11/07 10:52:50;;;;;;;;;;;12.70;99.90;;;;;;4951014;29;19997;-91
2022/11/07 10:55:16;;;;;;;;;;;12.80;99.90;;;;;;4951303;29;19977;-91
2022/11/07 10:57:42;;;;;;;;;;;12.80;99.90;;;;;;4949895;29;20287;-91
2022/11/07 11:00:27;;;;;;;;;;;12.80;99.90;;;;;;4937161;28;19922;-90
2022/11/07 11:02:58;;;;;;;;;;;12.90;99.90;;;;;;4928322;29;19934;-90
2022/11/07 11:05:26;;;;;;;;;;;12.90;99.90;;;;;;4946009;29;19973;-90
2022/11/07 11:07:56;;;;;;;;;;;12.90;99.90;;;;;;4944726;29;19918;-91
2022/11/07 11:10:27;;;;;;;;;;;13.00;99.90;;;;;;4943628;28;19964;-90
2022/11/07 11:12:52;;;;;;;;;;;13.00;99.90;;;;;;4949365;28;19922;-89
2022/11/07 11:15:27;;;;;;;;;;;13.20;99.90;;;;;;4948051;28;19969;-89
2022/11/07 11:18:04;;;;;;;;;;;13.20;99.90;;;;;;4943081;28;20791;-90
2022/11/07 11:20:37;;;;;;;;;;;13.40;99.90;;;;;;4947152;28;19984;-90
2022/11/07 11:23:05;;;;;;;;;;;13.50;99.90;;;;;;4946451;28;19965;-90
2022/11/07 11:25:33;;;;;;;;;;;13.50;99.90;;;;;;4967756;28;19924;-92
2022/11/07 11:28:04;;;;;;;;;;;13.50;99.90;;;;;;4951891;28;20177;-91
2022/11/07 11:30:31;;;;;;;;;;;13.50;99.90;;;;;;4945507;28;20395;-92
2022/11/07 11:33:00;;;;;;;;;;;13.50;99.90;;;;;;4931333;28;19932;-92
2022/11/07 11:35:41;;;;;;;;;;;13.50;99.90;;;;;;4924632;28;19933;-91
2022/11/07 11:38:13;;;;;;;;;;;13.50;99.90;;;;;;4936517;28;19977;-88
2022/11/07 11:40:40;;;;;;;;;;;13.50;99.90;;;;;;4944065;28;19992;-91
2022/11/07 11:43:22;;;;;;;;;;;13.50;99.90;;;;;;4942770;29;19930;-90
2022/11/07 11:45:56;;;;;;;;;;;13.50;99.90;;;;;;4951717;28;19962;-91
2022/11/07 11:48:24;;;;;;;;;;;13.60;99.90;;;;;;4926193;29;20295;-90
2022/11/07 11:50:53;;;;;;;;;;;13.50;99.90;;;;;;4950603;29;20383;-89
2022/11/07 11:53:20;;;;;;;;;;;13.50;99.90;;;;;;4948651;29;19962;-90
2022/11/07 11:56:05;;;;;;;;;;;13.50;99.90;;;;;;4951427;29;19922;-89
2022/11/07 11:58:36;;;;;;;;;;;13.50;99.90;;;;;;4940840;29;20017;-89
2022/11/07 12:01:22;;;;;;;;;;;13.50;99.90;;;;;;4961095;28;20005;-90
2022/11/07 12:04:02;;;;;;;;;;;13.40;99.90;;;;;;4926799;29;19929;-90
2022/11/07 12:06:35;;;;;;;;;;;13.40;99.90;;;;;;4928802;29;19926;-91
2022/11/07 12:09:20;;;;;;;;;;;13.40;99.90;;;;;;4947696;29;19918;-90
2022/11/07 12:12:04;;;;;;;;;;;13.40;99.90;;;;;;4959539;28;19930;-91
2022/11/07 12:14:53;;;;;;;;;;;13.40;99.90;;;;;;4932154;29;20022;-91
2022/11/07 12:17:22;;;;;;;;;;;13.40;99.90;;;;;;4924285;29;19965;-90
2022/11/07 12:19:54;;;;;;;;;;;13.40;99.90;;;;;;4931484;29;19919;-91
2022/11/07 12:22:27;;;;;;;;;;;13.40;99.90;;;;;;4926854;29;20011;-90
2022/11/07 12:25:15;;;;;;;;;;;13.40;99.90;;;;;;4970520;29;19922;-91
2022/11/07 12:27:44;;;;;;;;;;;13.40;99.90;;;;;;4978458;28;19922;-93
2022/11/07 12:30:24;;;;;;;;;;;13.40;99.90;;;;;;4951346;29;20155;-92
2022/11/07 12:32:50;;;;;;;;;;;13.40;99.90;;;;;;4944588;29;19918;-88
2022/11/07 12:35:22;;;;;;;;;;;13.50;99.90;;;;;;4939543;29;19981;-87
2022/11/07 12:37:51;;;;;;;;;;;13.50;99.90;;;;;;4949634;29;19969;-91
2022/11/07 12:40:25;;;;;;;;;;;13.50;99.90;;;;;;4934225;29;20005;-91
2022/11/07 12:43:14;;;;;;;;;;;13.50;99.90;;;;;;4941477;29;20014;-92
2022/11/07 12:45:52;;;;;;;;;;;13.60;99.90;;;;;;4948457;29;20403;-93
2022/11/07 12:48:28;;;;;;;;;;;13.60;99.90;;;;;;4927016;29;19918;-93
2022/11/07 12:51:14;;;;;;;;;;;13.60;99.90;;;;;;4938306;29;19925;-85
2022/11/07 12:53:48;;;;;;;;;;;13.60;99.90;;;;;;4938292;29;20325;-86
2022/11/07 12:56:16;;;;;;;;;;;13.70;99.90;;;;;;4920662;29;20381;-88
2022/11/07 12:58:42;;;;;;;;;;;13.70;99.90;;;;;;4942624;29;19941;-88
2022/11/07 13:01:11;;;;;;;;;;;13.70;99.90;;;;;;4937367;29;19926;-89
2022/11/07 13:04:15;;;;;;;;;;;13.70;99.90;;;;;;4936122;29;19922;-91
2022/11/07 13:06:57;;;;;;;;;;;13.70;99.90;;;;;;4925569;29;19922;-90
2022/11/07 13:09:27;;;;;;;;;;;13.90;99.90;;;;;;4927901;28;19922;-89
2022/11/07 13:12:05;;;;;;;;;;;13.80;99.90;;;;;;4937856;29;20781;-85
2022/11/07 13:14:32;;;;;;;;;;;13.70;99.90;;;;;;4944014;29;19929;-87
2022/11/07 13:17:00;;;;;;;;;;;13.80;99.90;;;;;;4934992;28;19968;-87
2022/11/07 13:19:33;;;;;;;;;;;13.70;99.90;;;;;;4939912;29;19922;-88
2022/11/07 13:22:00;;;;;;;;;;;13.60;99.90;;;;;;4938403;29;19922;-88
2022/11/07 13:24:26;;;;;;;;;;;13.80;99.90;;;;;;4959103;28;19933;-87
2022/11/07 13:26:52;;;;;;;;;;;13.80;99.90;;;;;;4923355;29;19926;-88
2022/11/07 13:29:32;;;;;;;;;;;13.70;99.90;;;;;;4906149;29;19985;-88
2022/11/07 13:32:08;;;;;;;;;;;13.20;99.90;;;;;;4941751;29;19923;-88
2022/11/07 13:34:52;;;;;;;;;;;13.70;99.90;;;;;;4924628;29;19922;-88
2022/11/07 13:37:24;;;;;;;;;;;13.60;99.90;;;;;;4927392;29;19925;-89
2022/11/07 13:39:52;;;;;;;;;;;13.60;99.90;;;;;;4946183;29;19922;-87
2022/11/07 13:42:18;;;;;;;;;;;13.60;99.90;;;;;;4935941;29;19922;-89
2022/11/07 13:44:50;;;;;;;;;;;13.50;99.90;;;;;;4922665;29;19925;-88
2022/11/07 13:47:18;;;;;;;;;;;13.50;99.90;;;;;;4925962;28;19946;-89
2022/11/07 13:49:48;;;;;;;;;;;13.50;99.90;;;;;;4937078;29;19926;-88
2022/11/07 13:52:19;;;;;;;;;;;13.50;99.90;;;;;;4938869;29;20471;-88
2022/11/07 13:55:03;;;;;;;;;;;13.50;99.90;;;;;;4939366;29;19974;-89
2022/11/07 13:57:44;;;;;;;;;;;13.50;99.90;;;;;;4934167;29;19927;-89
2022/11/07 14:00:19;;;;;;;;;;;13.50;99.90;;;;;;4941124;29;19922;-89
2022/11/07 14:02:55;;;;;;;;;;;13.50;99.90;;;;;;4927481;28;20516;-88
2022/11/07 14:05:22;;;;;;;;;;;13.50;99.90;;;;;;4952658;28;20661;-88
2022/11/07 14:08:01;;;;;;;;;;;13.50;99.90;;;;;;4926687;29;19923;-88
2022/11/07 14:10:27;;;;;;;;;;;14.20;99.90;;;;;;4944762;29;19977;-89
2022/11/07 14:12:59;;;;;;;;;;;13.40;99.90;;;;;;4934306;29;19918;-88
2022/11/07 14:15:25;;;;;;;;;;;13.40;99.90;;;;;;4944808;29;19925;-88
2022/11/07 14:17:51;;;;;;;;;;;13.40;99.90;;;;;;4924350;29;19945;-89
2022/11/07 14:20:18;;;;;;;;;;;13.40;99.90;;;;;;4931552;29;20360;-88
2022/11/07 14:22:57;;;;;;;;;;;13.30;99.90;;;;;;4947983;28;20323;-88
2022/11/07 14:25:33;;;;;;;;;;;13.30;99.90;;;;;;4949511;28;19922;-88
2022/11/07 14:27:59;;;;;;;;;;;13.30;99.90;;;;;;4942928;29;20410;-89
2022/11/07 14:30:27;;;;;;;;;;;13.30;99.90;;;;;;4908987;29;20005;-88
2022/11/07 14:32:54;;;;;;;;;;;13.30;99.90;;;;;;4932682;29;20005;-88